createdAt,value
2022-08-22T00:03:04.031Z,1016.42
2022-08-22T00:03:15.030Z,1016.41
2022-08-22T00:03:26.813Z,1016.71
2022-08-22T00:04:26.843Z,1016.69
2022-08-22T00:05:26.806Z,1016.69
2022-08-22T00:06:26.817Z,1016.68
2022-08-22T00:07:26.756Z,1016.66
2022-08-22T00:08:26.790Z,1016.65
2022-08-22T00:09:26.756Z,1016.65
2022-08-22T00:10:26.768Z,1016.68
2022-08-22T00:11:26.716Z,1016.63
2022-08-22T00:12:26.740Z,1016.62
2022-08-22T00:13:26.694Z,1016.65
2022-08-22T00:14:26.682Z,1016.63
2022-08-22T00:15:43.122Z,1016.59
2022-08-22T00:16:26.660Z,1016.64
2022-08-22T00:17:26.623Z,1016.56
2022-08-22T00:18:26.629Z,1016.59
2022-08-22T00:19:26.600Z,1016.59
2022-08-22T00:20:28.421Z,1016.55
2022-08-22T00:21:26.636Z,1016.56
2022-08-22T00:22:26.571Z,1016.53
2022-08-22T00:23:26.561Z,1016.51
2022-08-22T00:24:26.556Z,1016.54
2022-08-22T00:25:26.518Z,1016.51
2022-08-22T00:26:26.603Z,1016.52
2022-08-22T00:27:26.504Z,1016.49
2022-08-22T00:28:26.491Z,1016.48
2022-08-22T00:29:26.486Z,1016.50
2022-08-22T00:30:26.471Z,1016.47
2022-08-22T00:31:26.440Z,1016.44
2022-08-22T00:32:26.486Z,1016.47
2022-08-22T00:33:26.431Z,1016.45
2022-08-22T00:34:26.557Z,1016.45
2022-08-22T00:35:26.404Z,1016.44
2022-08-22T00:36:26.389Z,1016.43
2022-08-22T00:37:26.402Z,1016.41
2022-08-22T00:38:26.393Z,1016.43
2022-08-22T00:39:26.341Z,1016.45
2022-08-22T00:40:26.334Z,1016.42
2022-08-22T00:41:26.319Z,1016.43
2022-08-22T00:42:31.386Z,1016.45
2022-08-22T00:43:26.333Z,1016.42
2022-08-22T00:44:26.287Z,1016.41
2022-08-22T00:45:26.265Z,1016.42
2022-08-22T00:46:26.255Z,1016.40
2022-08-22T00:47:26.239Z,1016.38
2022-08-22T00:48:26.268Z,1016.37
2022-08-22T00:49:29.587Z,1016.38
2022-08-22T00:50:26.210Z,1016.35
2022-08-22T00:51:26.181Z,1016.37
2022-08-22T00:52:26.200Z,1016.37
2022-08-22T00:53:26.151Z,1016.39
2022-08-22T00:54:26.179Z,1016.33
2022-08-22T00:55:26.116Z,1016.41
2022-08-22T00:56:26.133Z,1016.38
2022-08-22T00:57:26.094Z,1016.40
2022-08-22T00:58:26.094Z,1016.40
2022-08-22T00:59:26.115Z,1016.40
2022-08-22T01:00:26.083Z,1016.42
2022-08-22T01:01:26.083Z,1016.39
2022-08-22T01:02:26.074Z,1016.42
2022-08-22T01:03:26.029Z,1016.42
2022-08-22T01:04:26.021Z,1016.40
2022-08-22T01:05:26.018Z,1016.39
2022-08-22T01:06:25.979Z,1016.38
2022-08-22T01:07:25.971Z,1016.43
2022-08-22T01:08:25.994Z,1016.38
2022-08-22T01:09:25.928Z,1016.39
2022-08-22T01:10:25.952Z,1016.42
2022-08-22T01:11:25.954Z,1016.41
2022-08-22T01:12:25.890Z,1016.40
2022-08-22T01:13:25.886Z,1016.44
2022-08-22T01:14:34.860Z,1016.37
2022-08-22T01:15:25.868Z,1016.36
2022-08-22T01:16:25.870Z,1016.37
2022-08-22T01:17:25.844Z,1016.34
2022-08-22T01:18:25.814Z,1016.35
2022-08-22T01:19:25.810Z,1016.41
2022-08-22T01:20:25.798Z,1016.37
2022-08-22T01:21:25.822Z,1016.38
2022-08-22T01:22:25.778Z,1016.37
2022-08-22T01:23:25.806Z,1016.35
2022-08-22T01:24:25.734Z,1016.34
2022-08-22T01:25:26.010Z,1016.29
2022-08-22T01:26:25.726Z,1016.31
2022-08-22T01:27:25.736Z,1016.30
2022-08-22T01:28:25.677Z,1016.29
2022-08-22T01:29:27.710Z,1016.27
2022-08-22T01:30:25.658Z,1016.25
2022-08-22T01:31:25.652Z,1016.26
2022-08-22T01:32:25.695Z,1016.24
2022-08-22T01:33:25.630Z,1016.27
2022-08-22T01:34:25.602Z,1016.23
2022-08-22T01:35:25.608Z,1016.22
2022-08-22T01:36:25.573Z,1016.21
2022-08-22T01:37:25.578Z,1016.22
2022-08-22T01:38:25.595Z,1016.22
2022-08-22T01:39:25.547Z,1016.23
2022-08-22T01:40:25.520Z,1016.24
2022-08-22T01:41:25.556Z,1016.23
2022-08-22T01:42:25.505Z,1016.22
2022-08-22T01:43:58.779Z,1016.21
2022-08-22T01:44:25.490Z,1016.22
2022-08-22T01:45:25.469Z,1016.25
2022-08-22T01:46:25.451Z,1016.24
2022-08-22T01:47:25.450Z,1016.22
2022-08-22T01:48:25.444Z,1016.22
2022-08-22T01:49:25.481Z,1016.19
2022-08-22T01:50:25.385Z,1016.23
2022-08-22T01:51:25.397Z,1016.21
2022-08-22T01:52:25.366Z,1016.18
2022-08-22T01:53:25.363Z,1016.17
2022-08-22T01:54:25.425Z,1016.20
2022-08-22T01:55:25.359Z,1016.16
2022-08-22T01:56:25.315Z,1016.16
2022-08-22T01:57:25.303Z,1016.17
2022-08-22T01:58:25.290Z,1016.22
2022-08-22T01:59:28.919Z,1016.19
2022-08-22T02:00:34.540Z,1016.17
2022-08-22T02:01:25.283Z,1016.19
2022-08-22T02:02:25.231Z,1016.17
2022-08-22T02:03:25.249Z,1016.17
2022-08-22T02:04:25.198Z,1016.19
2022-08-22T02:05:25.293Z,1016.20
2022-08-22T02:06:25.186Z,1016.15
2022-08-22T02:07:31.567Z,1016.15
2022-08-22T02:08:25.161Z,1016.18
2022-08-22T02:09:25.143Z,1016.20
2022-08-22T02:10:25.153Z,1016.16
2022-08-22T02:11:25.144Z,1016.17
2022-08-22T02:12:25.122Z,1016.17
2022-08-22T02:13:25.101Z,1016.16
2022-08-22T02:14:25.067Z,1016.19
2022-08-22T02:15:25.070Z,1016.15
2022-08-22T02:16:25.087Z,1016.19
2022-08-22T02:17:25.071Z,1016.21
2022-08-22T02:18:25.064Z,1016.13
2022-08-22T02:19:25.017Z,1016.15
2022-08-22T02:20:24.999Z,1016.16
2022-08-22T02:21:24.989Z,1016.13
2022-08-22T02:22:25.001Z,1016.16
2022-08-22T02:23:24.968Z,1016.14
2022-08-22T02:24:24.930Z,1016.13
2022-08-22T02:25:24.936Z,1016.16
2022-08-22T02:26:24.923Z,1016.08
2022-08-22T02:27:24.959Z,1016.13
2022-08-22T02:28:24.899Z,1016.12
2022-08-22T02:29:24.878Z,1016.08
2022-08-22T02:30:24.853Z,1016.12
2022-08-22T02:31:24.874Z,1016.09
2022-08-22T02:32:24.827Z,1016.10
2022-08-22T02:33:24.880Z,1016.12
2022-08-22T02:34:24.829Z,1016.11
2022-08-22T02:35:24.805Z,1016.13
2022-08-22T02:36:24.808Z,1016.08
2022-08-22T02:37:24.793Z,1016.13
2022-08-22T02:38:24.777Z,1016.08
2022-08-22T02:39:24.768Z,1016.07
2022-08-22T02:40:24.761Z,1016.10
2022-08-22T02:41:24.718Z,1016.08
2022-08-22T02:42:24.712Z,1016.07
2022-08-22T02:43:24.719Z,1016.07
2022-08-22T02:44:24.712Z,1016.06
2022-08-22T02:45:24.688Z,1016.06
2022-08-22T02:46:24.655Z,1015.99
2022-08-22T02:47:24.643Z,1016.05
2022-08-22T02:48:24.616Z,1016.02
2022-08-22T02:49:27.359Z,1015.99
2022-08-22T02:50:24.634Z,1015.96
2022-08-22T02:51:24.603Z,1015.99
2022-08-22T02:52:24.565Z,1015.95
2022-08-22T02:53:24.583Z,1015.97
2022-08-22T02:54:24.546Z,1015.96
2022-08-22T02:55:24.560Z,1015.97
2022-08-22T02:56:24.533Z,1015.97
2022-08-22T02:57:24.555Z,1015.99
2022-08-22T02:58:24.480Z,1015.96
2022-08-22T02:59:24.513Z,1015.97
2022-08-22T03:00:30.837Z,1015.94
2022-08-22T03:01:24.468Z,1015.95
2022-08-22T03:02:24.446Z,1015.90
2022-08-22T03:03:24.467Z,1015.91
2022-08-22T03:04:24.435Z,1015.93
2022-08-22T03:05:24.399Z,1015.92
2022-08-22T03:06:24.407Z,1015.92
2022-08-22T03:07:24.391Z,1015.89
2022-08-22T03:08:24.362Z,1015.89
2022-08-22T03:09:24.349Z,1015.97
2022-08-22T03:10:24.322Z,1015.91
2022-08-22T03:11:24.384Z,1015.90
2022-08-22T03:12:24.303Z,1015.95
2022-08-22T03:13:24.284Z,1015.88
2022-08-22T03:14:24.270Z,1015.86
2022-08-22T03:15:24.264Z,1015.91
2022-08-22T03:16:24.240Z,1015.92
2022-08-22T03:17:24.278Z,1015.94
2022-08-22T03:18:24.242Z,1015.96
2022-08-22T03:19:24.225Z,1015.92
2022-08-22T03:20:24.217Z,1015.94
2022-08-22T03:21:24.194Z,1015.90
2022-08-22T03:22:24.184Z,1015.92
2022-08-22T03:23:24.166Z,1015.96
2022-08-22T03:24:24.154Z,1015.93
2022-08-22T03:25:24.134Z,1015.93
2022-08-22T03:26:24.104Z,1015.89
2022-08-22T03:27:27.756Z,1015.87
2022-08-22T03:28:24.137Z,1015.84
2022-08-22T03:29:24.070Z,1015.89
2022-08-22T03:30:24.047Z,1015.82
2022-08-22T03:31:24.066Z,1015.84
2022-08-22T03:32:24.028Z,1015.85
2022-08-22T03:33:24.053Z,1015.82
2022-08-22T03:34:24.005Z,1015.85
2022-08-22T03:35:23.997Z,1015.84
2022-08-22T03:36:23.967Z,1015.87
2022-08-22T03:37:23.981Z,1015.83
2022-08-22T03:38:23.946Z,1015.81
2022-08-22T03:39:23.979Z,1015.79
2022-08-22T03:40:23.970Z,1015.78
2022-08-22T03:41:23.931Z,1015.77
2022-08-22T03:42:23.930Z,1015.76
2022-08-22T03:43:23.896Z,1015.78
2022-08-22T03:44:23.928Z,1015.77
2022-08-22T03:45:23.861Z,1015.78
2022-08-22T03:46:23.867Z,1015.73
2022-08-22T03:47:23.841Z,1015.75
2022-08-22T03:48:23.824Z,1015.75
2022-08-22T03:49:23.811Z,1015.77
2022-08-22T03:50:23.812Z,1015.75
2022-08-22T03:51:23.787Z,1015.77
2022-08-22T03:52:23.759Z,1015.78
2022-08-22T03:53:23.784Z,1015.77
2022-08-22T03:54:23.788Z,1015.76
2022-08-22T03:55:23.756Z,1015.76
2022-08-22T03:56:23.708Z,1015.81
2022-08-22T03:57:23.701Z,1015.79
2022-08-22T03:58:27.848Z,1015.82
2022-08-22T03:59:23.684Z,1015.81
2022-08-22T04:00:23.650Z,1015.80
2022-08-22T04:01:23.623Z,1015.82
2022-08-22T04:02:31.521Z,1015.86
2022-08-22T04:03:23.575Z,1015.80
2022-08-22T04:04:23.542Z,1015.82
2022-08-22T04:05:23.550Z,1015.83
2022-08-22T04:06:23.572Z,1015.85
2022-08-22T04:07:28.312Z,1015.83
2022-08-22T04:08:26.257Z,1015.89
2022-08-22T04:09:23.511Z,1015.81
2022-08-22T04:10:23.488Z,1015.89
2022-08-22T04:11:23.462Z,1015.84
2022-08-22T04:12:23.482Z,1015.85
2022-08-22T04:13:24.674Z,1015.84
2022-08-22T04:14:23.405Z,1015.88
2022-08-22T04:15:23.430Z,1015.89
2022-08-22T04:16:23.407Z,1015.92
2022-08-22T04:17:23.599Z,1015.88
2022-08-22T04:18:23.362Z,1015.88
2022-08-22T04:19:23.362Z,1015.90
2022-08-22T04:20:23.338Z,1015.92
2022-08-22T04:21:23.335Z,1015.91
2022-08-22T04:22:23.364Z,1015.92
2022-08-22T04:23:23.340Z,1015.95
2022-08-22T04:24:23.273Z,1015.91
2022-08-22T04:25:23.289Z,1015.89
2022-08-22T04:26:23.277Z,1015.85
2022-08-22T04:27:23.279Z,1015.86
2022-08-22T04:28:23.296Z,1015.78
2022-08-22T04:29:23.243Z,1015.81
2022-08-22T04:30:23.204Z,1015.85
2022-08-22T04:31:23.198Z,1015.83
2022-08-22T04:32:23.187Z,1015.86
2022-08-22T04:33:23.240Z,1015.82
2022-08-22T04:34:23.166Z,1015.82
2022-08-22T04:35:23.145Z,1015.79
2022-08-22T04:36:23.175Z,1015.80
2022-08-22T04:37:23.112Z,1015.80
2022-08-22T04:38:23.085Z,1015.82
2022-08-22T04:39:23.122Z,1015.83
2022-08-22T04:40:23.179Z,1015.78
2022-08-22T04:41:23.059Z,1015.80
2022-08-22T04:42:37.135Z,1015.79
2022-08-22T04:43:23.101Z,1015.79
2022-08-22T04:44:23.003Z,1015.77
2022-08-22T04:45:23.046Z,1015.79
2022-08-22T04:46:22.984Z,1015.81
2022-08-22T04:47:23.032Z,1015.81
2022-08-22T04:48:22.955Z,1015.87
2022-08-22T04:49:22.949Z,1015.85
2022-08-22T04:50:22.983Z,1015.91
2022-08-22T04:51:22.923Z,1015.91
2022-08-22T04:52:22.899Z,1015.92
2022-08-22T04:53:22.908Z,1015.92
2022-08-22T04:54:22.869Z,1015.93
2022-08-22T04:55:22.865Z,1015.86
2022-08-22T04:56:22.929Z,1015.94
2022-08-22T04:57:22.858Z,1015.92
2022-08-22T04:58:22.821Z,1015.99
2022-08-22T04:59:22.830Z,1015.94
2022-08-22T05:00:22.829Z,1015.90
2022-08-22T05:01:22.851Z,1015.95
2022-08-22T05:02:22.815Z,1015.95
2022-08-22T05:03:22.788Z,1015.98
2022-08-22T05:04:22.752Z,1015.99
2022-08-22T05:05:22.767Z,1016.01
2022-08-22T05:06:22.711Z,1016.02
2022-08-22T05:07:22.712Z,1015.99
2022-08-22T05:08:22.711Z,1016.02
2022-08-22T05:09:22.683Z,1016.00
2022-08-22T05:10:22.662Z,1015.96
2022-08-22T05:11:22.672Z,1015.92
2022-08-22T05:12:22.633Z,1015.98
2022-08-22T05:13:22.628Z,1015.97
2022-08-22T05:14:22.646Z,1015.99
2022-08-22T05:15:23.179Z,1015.96
2022-08-22T05:16:22.580Z,1015.98
2022-08-22T05:17:22.587Z,1015.93
2022-08-22T05:18:22.579Z,1015.92
2022-08-22T05:19:29.601Z,1015.98
2022-08-22T05:20:22.576Z,1015.96
2022-08-22T05:21:22.544Z,1015.99
2022-08-22T05:22:22.496Z,1015.95
2022-08-22T05:23:22.521Z,1015.98
2022-08-22T05:24:22.484Z,1015.96
2022-08-22T05:25:22.486Z,1015.99
2022-08-22T05:26:22.514Z,1016.02
2022-08-22T05:27:22.443Z,1016.02
2022-08-22T05:28:22.443Z,1016.04
2022-08-22T05:29:22.417Z,1016.03
2022-08-22T05:30:22.421Z,1016.01
2022-08-22T05:31:23.176Z,1016.01
2022-08-22T05:32:22.468Z,1016.01
2022-08-22T05:33:22.349Z,1016.05
2022-08-22T05:34:22.353Z,1016.05
2022-08-22T05:35:22.358Z,1015.97
2022-08-22T05:36:22.333Z,1015.99
2022-08-22T05:37:22.297Z,1016.00
2022-08-22T05:38:22.340Z,1016.02
2022-08-22T05:39:22.314Z,1016.01
2022-08-22T05:40:22.328Z,1016.03
2022-08-22T05:41:22.240Z,1016.04
2022-08-22T05:42:22.248Z,1016.04
2022-08-22T05:43:22.225Z,1016.05
2022-08-22T05:44:22.273Z,1016.07
2022-08-22T05:45:22.199Z,1016.13
2022-08-22T05:46:26.936Z,1016.05
2022-08-22T05:47:22.202Z,1016.10
2022-08-22T05:48:22.172Z,1016.07
2022-08-22T05:49:22.143Z,1016.13
2022-08-22T05:50:22.185Z,1016.15
2022-08-22T05:51:22.135Z,1016.17
2022-08-22T05:52:22.677Z,1016.19
2022-08-22T05:53:22.097Z,1016.18
2022-08-22T05:54:22.100Z,1016.21
2022-08-22T05:55:22.076Z,1016.21
2022-08-22T05:56:22.092Z,1016.25
2022-08-22T05:57:22.055Z,1016.26
2022-08-22T05:58:22.043Z,1016.32
2022-08-22T05:59:22.022Z,1016.30
2022-08-22T06:00:22.011Z,1016.30
2022-08-22T06:01:22.079Z,1016.33
2022-08-22T06:02:22.014Z,1016.36
2022-08-22T06:03:21.950Z,1016.33
2022-08-22T06:04:21.952Z,1016.32
2022-08-22T06:05:21.929Z,1016.34
2022-08-22T06:06:21.937Z,1016.33
2022-08-22T06:07:21.917Z,1016.34
2022-08-22T06:08:21.927Z,1016.33
2022-08-22T06:09:21.895Z,1016.36
2022-08-22T06:10:21.874Z,1016.32
2022-08-22T06:11:22.338Z,1016.34
2022-08-22T06:12:22.523Z,1016.35
2022-08-22T06:13:23.549Z,1016.29
2022-08-22T06:14:24.762Z,1016.32
2022-08-22T06:15:21.789Z,1016.32
2022-08-22T06:16:21.796Z,1016.33
2022-08-22T06:17:21.789Z,1016.35
2022-08-22T06:18:21.763Z,1016.36
2022-08-22T06:19:21.751Z,1016.38
2022-08-22T06:20:21.818Z,1016.39
2022-08-22T06:21:21.717Z,1016.35
2022-08-22T06:22:21.728Z,1016.41
2022-08-22T06:23:21.699Z,1016.39
2022-08-22T06:24:21.688Z,1016.42
2022-08-22T06:25:21.667Z,1016.43
2022-08-22T06:26:21.713Z,1016.44
2022-08-22T06:27:21.662Z,1016.39
2022-08-22T06:28:21.659Z,1016.44
2022-08-22T06:29:21.618Z,1016.42
2022-08-22T06:30:21.608Z,1016.43
2022-08-22T06:31:21.594Z,1016.44
2022-08-22T06:32:44.287Z,1016.42
2022-08-22T06:33:21.594Z,1016.44
2022-08-22T06:34:21.660Z,1016.43
2022-08-22T06:35:21.569Z,1016.42
2022-08-22T06:36:21.555Z,1016.45
2022-08-22T06:37:21.523Z,1016.42
2022-08-22T06:38:21.591Z,1016.45
2022-08-22T06:39:27.987Z,1016.42
2022-08-22T06:40:21.589Z,1016.45
2022-08-22T06:41:21.460Z,1016.47
2022-08-22T06:42:21.457Z,1016.43
2022-08-22T06:43:21.448Z,1016.44
2022-08-22T06:44:21.472Z,1016.48
2022-08-22T06:45:21.408Z,1016.51
2022-08-22T06:46:21.395Z,1016.49
2022-08-22T06:47:21.373Z,1016.49
2022-08-22T06:48:21.372Z,1016.54
2022-08-22T06:49:21.369Z,1016.46
2022-08-22T06:50:21.388Z,1016.48
2022-08-22T06:51:21.308Z,1016.49
2022-08-22T06:52:21.330Z,1016.48
2022-08-22T06:53:21.331Z,1016.49
2022-08-22T06:54:21.313Z,1016.52
2022-08-22T06:55:21.262Z,1016.53
2022-08-22T06:56:21.297Z,1016.50
2022-08-22T06:57:21.286Z,1016.51
2022-08-22T06:58:21.230Z,1016.55
2022-08-22T06:59:21.204Z,1016.49
2022-08-22T07:00:21.226Z,1016.47
2022-08-22T07:01:21.205Z,1016.52
2022-08-22T07:02:21.211Z,1016.48
2022-08-22T07:03:21.174Z,1016.47
2022-08-22T07:04:21.148Z,1016.47
2022-08-22T07:05:21.119Z,1016.50
2022-08-22T07:06:21.145Z,1016.55
2022-08-22T07:07:21.100Z,1016.53
2022-08-22T07:08:21.137Z,1016.51
2022-08-22T07:09:21.072Z,1016.54
2022-08-22T07:10:21.104Z,1016.52
2022-08-22T07:11:21.057Z,1016.52
2022-08-22T07:12:21.042Z,1016.52
2022-08-22T07:13:21.029Z,1016.45
2022-08-22T07:14:21.070Z,1016.54
2022-08-22T07:15:20.998Z,1016.49
2022-08-22T07:16:21.025Z,1016.48
2022-08-22T07:17:20.978Z,1016.50
2022-08-22T07:18:20.978Z,1016.45
2022-08-22T07:19:20.940Z,1016.46
2022-08-22T07:20:20.987Z,1016.45
2022-08-22T07:21:20.926Z,1016.45
2022-08-22T07:22:20.910Z,1016.47
2022-08-22T07:23:20.904Z,1016.48
2022-08-22T07:24:20.899Z,1016.48
2022-08-22T07:25:20.864Z,1016.49
2022-08-22T07:26:20.932Z,1016.44
2022-08-22T07:27:20.852Z,1016.46
2022-08-22T07:28:20.858Z,1016.47
2022-08-22T07:29:20.831Z,1016.52
2022-08-22T07:30:27.406Z,1016.51
2022-08-22T07:31:20.799Z,1016.48
2022-08-22T07:32:20.850Z,1016.48
2022-08-22T07:33:26.798Z,1016.50
2022-08-22T07:34:20.802Z,1016.51
2022-08-22T07:35:20.791Z,1016.43
2022-08-22T07:36:22.971Z,1016.45
2022-08-22T07:37:20.720Z,1016.44
2022-08-22T07:38:20.725Z,1016.47
2022-08-22T07:39:21.554Z,1016.49
2022-08-22T07:40:20.701Z,1016.50
2022-08-22T07:41:20.653Z,1016.48
2022-08-22T07:42:20.664Z,1016.47
2022-08-22T07:43:20.627Z,1016.49
2022-08-22T07:44:20.663Z,1016.45
2022-08-22T07:45:20.621Z,1016.47
2022-08-22T07:46:20.619Z,1016.46
2022-08-22T07:47:26.167Z,1016.54
2022-08-22T07:48:25.995Z,1016.50
2022-08-22T07:49:20.544Z,1016.49
2022-08-22T07:50:20.578Z,1016.48
2022-08-22T07:51:20.516Z,1016.50
2022-08-22T07:52:20.517Z,1016.48
2022-08-22T07:53:20.488Z,1016.52
2022-08-22T07:54:20.520Z,1016.50
2022-08-22T07:55:20.465Z,1016.49
2022-08-22T07:56:20.519Z,1016.47
2022-08-22T07:57:20.440Z,1016.44
2022-08-22T07:58:20.443Z,1016.48
2022-08-22T07:59:20.435Z,1016.43
2022-08-22T08:00:20.425Z,1016.46
2022-08-22T08:01:20.454Z,1016.44
2022-08-22T08:02:20.419Z,1016.48
2022-08-22T08:03:20.360Z,1016.54
2022-08-22T08:04:20.383Z,1016.51
2022-08-22T08:05:20.329Z,1016.49
2022-08-22T08:06:20.362Z,1016.47
2022-08-22T08:07:20.317Z,1016.52
2022-08-22T08:08:20.378Z,1016.49
2022-08-22T08:09:20.287Z,1016.50
2022-08-22T08:10:20.273Z,1016.52
2022-08-22T08:11:20.260Z,1016.54
2022-08-22T08:12:20.281Z,1016.49
2022-08-22T08:13:20.216Z,1016.53
2022-08-22T08:14:20.264Z,1016.56
2022-08-22T08:15:20.206Z,1016.54
2022-08-22T08:16:20.204Z,1016.53
2022-08-22T08:17:20.182Z,1016.60
2022-08-22T08:18:20.185Z,1016.62
2022-08-22T08:19:20.149Z,1016.61
2022-08-22T08:20:20.188Z,1016.63
2022-08-22T08:21:20.198Z,1016.61
2022-08-22T08:22:20.168Z,1016.63
2022-08-22T08:23:23.429Z,1016.57
2022-08-22T08:24:20.101Z,1016.62
2022-08-22T08:25:20.068Z,1016.60
2022-08-22T08:26:20.165Z,1016.59
2022-08-22T08:27:20.046Z,1016.61
2022-08-22T08:28:20.045Z,1016.63
2022-08-22T08:29:20.050Z,1016.61
2022-08-22T08:30:20.032Z,1016.64
2022-08-22T08:31:20.075Z,1016.65
2022-08-22T08:32:20.055Z,1016.66
2022-08-22T08:33:26.257Z,1016.67
2022-08-22T08:34:19.990Z,1016.64
2022-08-22T08:35:19.936Z,1016.67
2022-08-22T08:36:19.947Z,1016.63
2022-08-22T08:37:19.955Z,1016.64
2022-08-22T08:38:20.031Z,1016.64
2022-08-22T08:39:19.892Z,1016.67
2022-08-22T08:40:19.979Z,1016.70
2022-08-22T08:41:22.623Z,1016.71
2022-08-22T08:42:19.939Z,1016.71
2022-08-22T08:43:19.834Z,1016.69
2022-08-22T08:44:19.865Z,1016.71
2022-08-22T08:45:19.914Z,1016.71
2022-08-22T08:46:19.815Z,1016.72
2022-08-22T08:47:19.874Z,1016.74
2022-08-22T08:48:19.799Z,1016.70
2022-08-22T08:49:19.775Z,1016.73
2022-08-22T08:50:19.798Z,1016.76
2022-08-22T08:51:19.731Z,1016.74
2022-08-22T08:52:19.740Z,1016.71
2022-08-22T08:53:19.710Z,1016.78
2022-08-22T08:54:19.700Z,1016.75
2022-08-22T08:55:22.671Z,1016.72
2022-08-22T08:56:20.024Z,1016.70
2022-08-22T08:57:19.719Z,1016.74
2022-08-22T08:58:19.701Z,1016.73
2022-08-22T08:59:19.709Z,1016.79
2022-08-22T09:00:19.643Z,1016.78
2022-08-22T09:01:19.741Z,1016.70
2022-08-22T09:02:20.565Z,1016.73
2022-08-22T09:40:16.449Z,1016.73
2022-08-22T09:40:30.234Z,1016.51
2022-08-22T09:41:30.181Z,1016.46
2022-08-22T09:42:30.180Z,1016.42
2022-08-22T09:43:30.157Z,1016.45
2022-08-22T09:44:30.123Z,1016.39
2022-08-22T09:45:30.222Z,1016.41
2022-08-22T09:46:34.712Z,1016.42
2022-08-22T09:47:31.282Z,1016.38
2022-08-22T09:48:30.111Z,1016.39
2022-08-22T09:49:30.083Z,1016.39
2022-08-22T09:50:30.078Z,1016.42
2022-08-22T09:51:32.174Z,1016.40
2022-08-22T09:52:32.009Z,1016.36
2022-08-22T09:53:30.019Z,1016.38
2022-08-22T09:54:31.684Z,1016.38
2022-08-22T09:55:35.603Z,1016.39
2022-08-22T09:56:29.986Z,1016.41
2022-08-22T09:57:30.010Z,1016.36
2022-08-22T09:58:29.942Z,1016.38
2022-08-22T09:59:29.948Z,1016.38
2022-08-22T10:00:29.921Z,1016.36
2022-08-22T10:01:32.738Z,1016.37
2022-08-22T10:02:30.120Z,1016.38
2022-08-22T10:03:30.426Z,1016.36
2022-08-22T10:04:29.874Z,1016.39
2022-08-22T10:05:41.339Z,1016.42
2022-08-22T10:06:29.840Z,1016.32
2022-08-22T10:07:29.845Z,1016.34
2022-08-22T10:08:29.819Z,1016.37
2022-08-22T10:09:31.463Z,1016.39
2022-08-22T10:10:29.797Z,1016.38
2022-08-22T10:11:29.802Z,1016.37
2022-08-22T10:12:33.856Z,1016.36
2022-08-22T10:13:29.780Z,1016.38
2022-08-22T10:14:29.767Z,1016.37
2022-08-22T10:15:29.767Z,1016.34
2022-08-22T10:16:29.731Z,1016.34
2022-08-22T10:17:29.699Z,1016.33
2022-08-22T10:18:29.698Z,1016.28
2022-08-22T10:19:29.673Z,1016.26
2022-08-22T10:20:29.670Z,1016.22
2022-08-22T10:21:29.686Z,1016.21
2022-08-22T10:22:29.799Z,1016.22
2022-08-22T10:23:29.629Z,1016.17
2022-08-22T10:24:29.619Z,1016.16
2022-08-22T10:25:29.594Z,1016.17
2022-08-22T10:26:29.606Z,1016.24
2022-08-22T10:27:29.613Z,1016.22
2022-08-22T10:28:29.574Z,1016.17
2022-08-22T10:29:29.576Z,1016.15
2022-08-22T10:30:29.554Z,1016.16
2022-08-22T10:31:29.521Z,1016.15
2022-08-22T10:32:29.642Z,1016.09
2022-08-22T10:33:29.700Z,1016.07
2022-08-22T10:34:29.596Z,1016.07
2022-08-22T10:35:29.462Z,1016.06
2022-08-22T10:36:29.460Z,1016.08
2022-08-22T10:37:29.444Z,1016.06
2022-08-22T10:38:29.436Z,1016.02
2022-08-22T10:39:29.513Z,1016.07
2022-08-22T10:40:29.434Z,1016.07
2022-08-22T10:41:29.387Z,1016.05
2022-08-22T10:42:34.961Z,1016.06
2022-08-22T10:43:29.384Z,1016.05
2022-08-22T10:44:29.409Z,1016.05
2022-08-22T10:45:35.926Z,1016.02
2022-08-22T10:46:29.347Z,1016.05
2022-08-22T10:47:29.321Z,1016.04
2022-08-22T10:48:29.317Z,1016.05
2022-08-22T10:49:29.410Z,1016.02
2022-08-22T10:50:29.292Z,1015.96
2022-08-22T10:51:29.393Z,1015.99
2022-08-22T10:52:29.276Z,1015.95
2022-08-22T10:53:29.649Z,1015.99
2022-08-22T10:54:29.288Z,1015.96
2022-08-22T10:55:29.216Z,1015.94
2022-08-22T10:56:29.209Z,1015.92
2022-08-22T10:57:29.214Z,1015.90
2022-08-22T10:58:29.191Z,1015.89
2022-08-22T10:59:29.153Z,1015.89
2022-08-22T11:00:29.233Z,1015.88
2022-08-22T11:01:41.740Z,1015.86
2022-08-22T11:02:29.156Z,1015.88
2022-08-22T11:03:29.139Z,1015.87
2022-08-22T11:04:29.107Z,1015.88
2022-08-22T11:05:29.098Z,1015.91
2022-08-22T11:06:29.083Z,1015.88
2022-08-22T11:07:29.059Z,1015.92
2022-08-22T11:08:29.069Z,1015.91
2022-08-22T11:09:31.188Z,1015.95
2022-08-22T11:10:29.043Z,1015.93
2022-08-22T11:11:32.859Z,1015.92
2022-08-22T11:12:35.110Z,1015.89
2022-08-22T11:13:28.996Z,1015.89
2022-08-22T11:14:28.997Z,1015.87
2022-08-22T11:15:35.141Z,1015.92
2022-08-22T11:16:28.974Z,1015.87
2022-08-22T11:17:32.328Z,1015.80
2022-08-22T11:18:28.948Z,1015.82
2022-08-22T11:19:28.901Z,1015.80
2022-08-22T11:20:28.913Z,1015.81
2022-08-22T11:21:28.950Z,1015.76
2022-08-22T11:22:28.892Z,1015.79
2022-08-22T11:23:28.855Z,1015.86
2022-08-22T11:24:35.680Z,1015.85
2022-08-22T11:25:36.140Z,1015.79
2022-08-22T11:26:29.998Z,1015.84
2022-08-22T11:27:39.551Z,1015.83
2022-08-22T11:28:28.974Z,1015.87
2022-08-22T11:29:28.788Z,1015.90
2022-08-22T11:30:28.790Z,1015.83
2022-08-22T11:31:31.788Z,1015.82
2022-08-22T11:32:28.778Z,1015.84
2022-08-22T11:33:46.509Z,1015.79
2022-08-22T11:34:28.734Z,1015.82
2022-08-22T11:35:28.709Z,1015.78
2022-08-22T11:36:31.055Z,1015.77
2022-08-22T11:37:42.802Z,1015.74
2022-08-22T11:38:32.464Z,1015.79
2022-08-22T11:39:28.700Z,1015.74
2022-08-22T11:40:28.773Z,1015.71
2022-08-22T11:41:28.636Z,1015.72
2022-08-22T11:42:29.619Z,1015.70
2022-08-22T11:43:28.602Z,1015.75
2022-08-22T11:44:28.649Z,1015.72
2022-08-22T11:45:28.617Z,1015.75
2022-08-22T11:46:28.582Z,1015.73
2022-08-22T11:47:29.018Z,1015.72
2022-08-22T11:48:28.549Z,1015.75
2022-08-22T11:49:28.529Z,1015.72
2022-08-22T11:50:28.560Z,1015.69
2022-08-22T11:51:28.628Z,1015.75
2022-08-22T11:52:28.528Z,1015.76
2022-08-22T11:53:28.506Z,1015.74
2022-08-22T11:54:31.228Z,1015.75
2022-08-22T11:55:32.828Z,1015.73
2022-08-22T11:56:28.448Z,1015.71
2022-08-22T11:57:28.463Z,1015.68
2022-08-22T11:58:29.218Z,1015.66
2022-08-22T11:59:28.392Z,1015.69
2022-08-22T12:00:28.401Z,1015.62
2022-08-22T12:01:28.367Z,1015.61
2022-08-22T12:02:28.500Z,1015.60
2022-08-22T12:03:28.429Z,1015.60
2022-08-22T12:04:28.347Z,1015.64
2022-08-22T12:05:28.327Z,1015.61
2022-08-22T12:06:28.365Z,1015.59
2022-08-22T12:07:28.307Z,1015.67
2022-08-22T12:08:28.338Z,1015.65
2022-08-22T12:09:29.693Z,1015.60
2022-08-22T12:10:28.334Z,1015.60
2022-08-22T12:11:28.262Z,1015.57
2022-08-22T12:12:28.251Z,1015.54
2022-08-22T12:13:35.049Z,1015.60
2022-08-22T12:14:28.269Z,1015.53
2022-08-22T12:15:28.547Z,1015.54
2022-08-22T12:16:28.212Z,1015.58
2022-08-22T12:17:50.895Z,1015.58
2022-08-22T12:18:28.182Z,1015.55
2022-08-22T12:19:28.168Z,1015.57
2022-08-22T12:20:28.187Z,1015.53
2022-08-22T12:21:28.154Z,1015.51
2022-08-22T12:22:28.968Z,1015.60
2022-08-22T12:23:30.057Z,1015.60
2022-08-22T12:24:28.118Z,1015.58
2022-08-22T12:25:28.077Z,1015.53
2022-08-22T12:26:28.108Z,1015.54
2022-08-22T12:27:29.229Z,1015.54
2022-08-22T12:28:28.044Z,1015.52
2022-08-22T12:29:33.893Z,1015.52
2022-08-22T12:30:28.115Z,1015.47
2022-08-22T12:31:28.032Z,1015.52
2022-08-22T12:32:28.009Z,1015.60
2022-08-22T12:33:28.009Z,1015.53
2022-08-22T12:34:27.994Z,1015.54
2022-08-22T12:35:30.233Z,1015.55
2022-08-22T12:36:27.954Z,1015.54
2022-08-22T12:37:27.917Z,1015.52
2022-08-22T12:38:29.865Z,1015.47
2022-08-22T12:39:27.930Z,1015.43
2022-08-22T12:40:27.966Z,1015.47
2022-08-22T12:41:35.171Z,1015.49
2022-08-22T12:42:27.901Z,1015.49